createdAt,value
2019-05-17T00:01:37.607Z,96287.63
2019-05-17T00:06:33.690Z,96280.44
2019-05-17T00:11:29.531Z,96263.95
2019-05-17T00:16:26.843Z,96258.94
2019-05-17T00:21:22.631Z,96250.70
2019-05-17T00:26:18.352Z,96247.45
2019-05-17T00:31:14.123Z,96242.34
2019-05-17T00:36:09.894Z,96241.15
2019-05-17T00:41:07.051Z,96241.03
2019-05-17T00:46:02.978Z,96244.73
2019-05-17T00:51:02.217Z,96234.41
2019-05-17T00:55:57.318Z,96233.33
2019-05-17T01:00:53.417Z,96224.36
2019-05-17T01:05:49.209Z,96219.38
2019-05-17T01:10:47.210Z,96220.77
2019-05-17T01:15:42.364Z,96214.47
2019-05-17T01:20:38.095Z,96205.77
2019-05-17T01:25:33.795Z,96204.07
2019-05-17T01:30:29.529Z,96205.94
2019-05-17T01:35:26.622Z,96203.05
2019-05-17T01:40:22.610Z,96194.40
2019-05-17T01:45:18.877Z,96194.48
2019-05-17T01:50:17.248Z,96194.04
2019-05-17T01:55:12.826Z,96195.50
2019-05-17T02:00:10.621Z,96188.50
2019-05-17T02:05:07.485Z,96191.19
2019-05-17T02:10:03.289Z,96186.50
2019-05-17T02:14:59.074Z,96177.88
2019-05-17T02:19:57.165Z,96178.20
2019-05-17T02:24:52.523Z,96168.38
2019-05-17T02:29:48.435Z,96170.36
2019-05-17T02:34:44.134Z,96170.72
2019-05-17T02:39:53.998Z,96172.97
2019-05-17T02:44:37.388Z,96170.83
2019-05-17T02:49:33.366Z,96168.89
2019-05-17T02:54:29.084Z,96172.16
2019-05-17T02:59:25.162Z,96173.72
2019-05-17T03:04:23.679Z,96171.48
2019-05-17T03:09:18.450Z,96168.59
2019-05-17T03:14:14.309Z,96169.04
2019-05-17T03:19:13.082Z,96161.70
2019-05-17T03:24:07.858Z,96163.12
2019-05-17T03:29:03.971Z,96171.80
2019-05-17T03:34:06.797Z,96172.19
2019-05-17T03:38:59.037Z,96174.91
2019-05-17T03:43:54.921Z,96174.78
2019-05-17T03:48:53.226Z,96171.85
2019-05-17T03:53:48.740Z,96170.29
2019-05-17T03:58:44.495Z,96167.22
2019-05-17T04:03:43.355Z,96168.36
2019-05-17T04:08:38.041Z,96173.05
2019-05-17T04:13:34.014Z,96165.25
2019-05-17T04:18:29.822Z,96170.97
2019-05-17T04:23:25.627Z,96175.34
2019-05-17T04:28:22.904Z,96170.30
2019-05-17T04:33:19.031Z,96168.33
2019-05-17T04:38:14.799Z,96174.99
2019-05-17T04:43:13.310Z,96184.41
2019-05-17T04:48:08.174Z,96190.94
2019-05-17T04:53:03.969Z,96183.34
2019-05-17T04:58:03.481Z,96178.32
2019-05-17T05:02:57.254Z,96180.48
2019-05-17T05:07:53.638Z,96183.68
2019-05-17T05:12:52.216Z,96186.08
2019-05-17T05:17:47.440Z,96174.95
2019-05-17T05:22:43.358Z,96169.64
2019-05-17T05:27:39.216Z,96157.69
2019-05-17T05:32:35.072Z,96155.50
2019-05-17T05:37:33.106Z,96152.73
2019-05-17T05:42:28.394Z,96154.67
2019-05-17T05:47:24.142Z,96160.48
2019-05-17T05:52:21.877Z,96154.70
2019-05-17T05:57:16.792Z,96155.56
2019-05-17T06:02:12.567Z,96164.11
2019-05-17T06:07:08.297Z,96169.31
2019-05-17T06:12:04.147Z,96167.76
2019-05-17T06:17:02.758Z,96166.09
2019-05-17T06:21:57.580Z,96158.84
2019-05-17T06:26:53.334Z,96159.31
2019-05-17T06:31:51.731Z,96157.31
2019-05-17T06:36:46.603Z,96149.34
2019-05-17T06:41:42.437Z,96149.64
2019-05-17T06:46:38.251Z,96139.66
2019-05-17T06:51:34.620Z,96130.30
2019-05-17T06:56:32.207Z,96113.06
2019-05-17T07:01:29.211Z,96117.72
2019-05-17T07:06:26.676Z,96123.41
2019-05-17T07:11:22.443Z,96120.23
2019-05-17T07:16:19.728Z,96112.76
2019-05-17T07:21:15.766Z,96107.80
2019-05-17T07:26:12.131Z,96097.77
2019-05-17T07:31:10.067Z,96096.50
2019-05-17T07:36:05.600Z,96097.18
2019-05-17T07:41:01.407Z,96090.05
2019-05-17T07:45:57.297Z,96074.69
2019-05-17T07:50:53.173Z,96068.87
2019-05-17T07:55:50.536Z,96068.19
2019-05-17T08:00:46.492Z,96073.85
2019-05-17T08:05:42.497Z,96066.09
2019-05-17T08:10:41.100Z,96065.25
2019-05-17T08:15:36.029Z,96057.33
2019-05-17T08:20:31.775Z,96053.71
2019-05-17T08:25:27.566Z,96048.89
2019-05-17T08:30:23.450Z,96045.27
2019-05-17T08:35:19.808Z,96043.64
2019-05-17T08:40:16.018Z,96036.08
2019-05-17T08:45:11.944Z,96030.91
2019-05-17T08:50:10.908Z,96031.42
2019-05-17T08:55:06.876Z,96034.72
2019-05-17T09:00:02.685Z,96020.27
2019-05-17T09:05:00.626Z,96007.30
2019-05-17T09:09:56.666Z,96011.97
2019-05-17T09:14:52.480Z,96013.95
2019-05-17T09:19:50.526Z,96003.97
2019-05-17T09:24:45.766Z,96001.23
2019-05-17T09:29:41.549Z,95997.09
2019-05-17T09:34:37.291Z,95993.30
2019-05-17T09:39:33.039Z,95989.25
2019-05-17T09:44:29.921Z,95979.42
2019-05-17T09:49:25.741Z,95973.55
2019-05-17T09:54:37.114Z,95962.78
2019-05-17T09:59:20.443Z,95957.58
2019-05-17T10:04:16.270Z,95949.94
2019-05-17T10:09:12.026Z,95942.77
2019-05-17T10:14:11.592Z,95938.70
2019-05-17T10:19:09.441Z,95932.86
2019-05-17T10:24:04.499Z,95936.32
2019-05-17T10:29:00.344Z,95925.72
2019-05-17T10:33:58.226Z,95922.57
2019-05-17T10:38:53.581Z,95924.02
2019-05-17T10:43:50.053Z,95915.56
2019-05-17T10:48:46.051Z,95905.25
2019-05-17T10:53:41.825Z,95905.86
2019-05-17T10:58:39.937Z,95903.03
2019-05-17T11:03:36.158Z,95899.20
2019-05-17T11:08:32.173Z,95906.45
2019-05-17T11:14:14.200Z,95905.89
2019-05-17T11:19:08.870Z,95902.03
2019-05-17T11:24:22.060Z,95895.67
2019-05-17T11:29:41.420Z,95891.84
2019-05-17T11:35:00.359Z,95883.07
2019-05-17T11:51:56.532Z,95871.21
2019-05-17T11:57:34.134Z,95854.49
2019-05-17T12:02:37.208Z,95855.34
2019-05-17T12:07:47.604Z,95858.86
2019-05-17T12:13:15.112Z,95842.58
2019-05-17T12:18:34.287Z,95842.83
2019-05-17T12:24:12.821Z,95837.91
2019-05-17T12:29:17.704Z,95837.50
2019-05-17T12:34:19.220Z,95833.30
2019-05-17T12:39:14.767Z,95830.26
2019-05-17T12:44:10.640Z,95830.10
2019-05-17T12:49:06.623Z,95834.19
2019-05-17T12:54:02.656Z,95832.67
2019-05-17T12:58:59.035Z,95825.96
2019-05-17T13:04:02.942Z,95816.36
2019-05-17T13:09:09.347Z,95815.47
2019-05-17T13:14:23.519Z,95812.62
2019-05-17T13:19:19.609Z,95805.31
2019-05-17T13:24:38.400Z,95801.98
2019-05-17T13:29:46.507Z,95798.20
2019-05-17T13:35:01.603Z,95810.60
2019-05-17T13:40:21.394Z,95801.21
2019-05-17T13:45:18.194Z,95799.27
2019-05-17T13:50:30.772Z,95799.27
2019-05-17T13:55:26.817Z,95787.28
2019-05-17T14:00:22.984Z,95787.91
2019-05-17T14:05:18.864Z,95783.74
2019-05-17T14:10:26.838Z,95775.16
2019-05-17T14:15:13.593Z,95779.50
2019-05-17T14:20:09.795Z,95780.34
2019-05-17T14:25:05.910Z,95779.42
2019-05-17T14:30:01.767Z,95773.58
2019-05-17T14:34:57.568Z,95768.24
2019-05-17T14:39:53.455Z,95765.70
2019-05-17T14:44:49.246Z,95763.56
2019-05-17T14:49:45.140Z,95774.08
2019-05-17T14:54:40.900Z,95771.11
2019-05-17T14:59:36.679Z,95766.59
2019-05-17T15:04:32.586Z,95766.72
2019-05-17T15:09:28.643Z,95751.83
2019-05-17T15:14:24.499Z,95751.95
2019-05-17T15:19:20.545Z,95745.36
2019-05-17T15:24:16.319Z,95742.55
2019-05-17T15:29:12.193Z,95744.92
2019-05-17T15:34:08.175Z,95752.20
2019-05-17T15:39:04.917Z,95745.81
2019-05-17T15:44:05.046Z,95744.05
2019-05-17T15:49:00.844Z,95738.52
2019-05-17T15:53:56.906Z,95737.27
2019-05-17T15:58:53.111Z,95729.55
2019-05-17T16:03:49.116Z,95727.80
2019-05-17T16:08:45.088Z,95721.88
2019-05-17T16:13:40.911Z,95722.41
2019-05-17T16:18:37.120Z,95727.03
2019-05-17T16:23:32.997Z,95728.92
2019-05-17T16:28:28.931Z,95728.50
2019-05-17T16:33:24.798Z,95722.45
2019-05-17T16:38:20.559Z,95725.34
2019-05-17T16:43:18.516Z,95719.19
2019-05-17T16:48:13.938Z,95719.10
2019-05-17T16:53:09.898Z,95714.79
2019-05-17T16:58:06.066Z,95714.72
2019-05-17T17:03:01.808Z,95713.61
2019-05-17T17:07:57.765Z,95716.61
2019-05-17T17:12:53.582Z,95719.41
2019-05-17T17:17:49.482Z,95716.73
2019-05-17T17:22:45.265Z,95726.58
2019-05-17T17:27:41.224Z,95720.62
2019-05-17T17:32:37.153Z,95720.44
2019-05-17T17:37:32.979Z,95719.70
2019-05-17T17:42:28.925Z,95729.28
2019-05-17T17:47:24.773Z,95729.83
2019-05-17T17:52:20.488Z,95735.72
2019-05-17T17:57:16.357Z,95743.25
2019-05-17T18:02:12.456Z,95747.01
2019-05-17T18:07:08.482Z,95749.59
2019-05-17T18:12:05.759Z,95745.38
2019-05-17T18:17:06.164Z,95759.05
2019-05-17T18:22:02.016Z,95760.97
2019-05-17T18:26:57.841Z,95763.10
2019-05-17T18:31:53.667Z,95765.88
2019-05-17T18:36:51.421Z,95768.03
2019-05-17T18:41:47.285Z,95781.06
2019-05-17T18:46:43.160Z,95793.41
2019-05-17T18:51:38.955Z,95796.95
2019-05-17T18:56:34.755Z,95810.02
2019-05-17T19:01:30.499Z,95813.84
2019-05-17T19:06:26.276Z,95818.88
2019-05-17T19:11:22.054Z,95826.97
2019-05-17T19:16:17.813Z,95838.77
2019-05-17T19:21:13.632Z,95851.92
2019-05-17T19:26:09.389Z,95865.80
2019-05-17T19:31:05.189Z,95883.27
2019-05-17T19:36:00.974Z,95891.05
2019-05-17T19:40:56.761Z,95899.52
2019-05-17T19:45:52.521Z,95913.81
2019-05-17T19:50:48.323Z,95913.68
2019-05-17T19:55:44.243Z,95923.78
2019-05-17T20:00:40.006Z,95923.37
2019-05-17T20:05:35.948Z,95930.08
2019-05-17T20:10:31.731Z,95941.20
2019-05-17T20:15:34.633Z,95940.88
2019-05-17T20:20:25.063Z,95942.28
2019-05-17T20:25:21.029Z,95947.60
2019-05-17T20:30:17.672Z,95942.64
2019-05-17T20:35:13.860Z,95946.66
2019-05-17T20:40:57.023Z,95946.01
2019-05-17T20:45:52.781Z,95936.43
2019-05-17T20:50:48.554Z,95931.59
2019-05-17T20:55:44.695Z,95936.50
2019-05-17T21:00:40.544Z,95942.59
2019-05-17T21:05:36.269Z,95945.11
2019-05-17T21:10:32.127Z,95938.73
2019-05-17T21:15:27.958Z,95937.87
2019-05-17T21:20:23.685Z,95942.16
2019-05-17T21:25:19.724Z,95949.11
2019-05-17T21:30:15.686Z,95950.25
2019-05-17T21:35:12.839Z,95950.92
2019-05-17T21:40:09.260Z,95952.09
2019-05-17T21:45:05.635Z,95950.95
2019-05-17T21:50:01.395Z,95943.20
2019-05-17T21:54:57.167Z,95941.89
2019-05-17T21:59:53.040Z,95953.59
2019-05-17T22:04:48.784Z,95948.80
2019-05-17T22:09:44.638Z,95962.02
2019-05-17T22:14:40.454Z,95965.13
2019-05-17T22:19:36.211Z,95962.34
2019-05-17T22:24:31.914Z,95959.72
2019-05-17T22:29:27.656Z,95964.11
2019-05-17T22:34:23.373Z,95966.91
2019-05-17T22:39:19.131Z,95962.95
2019-05-17T22:44:15.004Z,95969.35
2019-05-17T22:49:10.802Z,95969.02
2019-05-17T22:54:06.588Z,95968.33
2019-05-17T22:59:02.503Z,95971.73
2019-05-17T23:03:58.429Z,95964.20
2019-05-17T23:08:54.208Z,95959.23
2019-05-17T23:20:33.861Z,95965.86
2019-05-17T23:32:34.159Z,95960.66
2019-05-17T23:38:32.915Z,95958.78
